Time;durP1;ratioP1;P1;durP2;ratioP2;P2;SDS_P1;SDS_P2;PMS_P1;PMS_P2;Temp;Humidity;BMP_temperature;BMP_pressure;BME280_temperature;BME280_humidity;BME280_pressure;Samples;Min_cycle;Max_cycle;Signal;HPM_P1;HPM_P2
2021/12/20 00:01:22;;;;;;;15.18;5.90;;;;;;;7.36;81.05;102563.53;3567322;40;20116;-66
2021/12/20 00:03:48;;;;;;;15.20;5.97;;;;;;;7.68;80.88;102611.03;3569314;40;20069;-65
2021/12/20 00:06:13;;;;;;;14.38;6.25;;;;;;;7.41;80.95;102566.09;3567674;40;20055;-65
2021/12/20 00:08:39;;;;;;;13.73;6.10;;;;;;;7.65;81.41;102597.72;3568199;40;20065;-66
2021/12/20 00:11:05;;;;;;;14.75;5.80;;;;;;;7.67;81.29;102603.00;3570953;40;20134;-64
2021/12/20 00:13:31;;;;;;;14.93;5.85;;;;;;;7.68;80.96;102603.00;3571096;40;20053;-65
2021/12/20 00:15:57;;;;;;;11.27;5.70;;;;;;;7.66;81.02;102603.94;3568619;40;20053;-65
2021/12/20 00:18:22;;;;;;;15.73;6.25;;;;;;;7.66;81.37;102612.84;3570568;40;20061;-65
2021/12/20 00:20:48;;;;;;;15.02;6.05;;;;;;;7.66;81.32;102599.47;3571636;40;20383;-65
2021/12/20 00:23:14;;;;;;;13.98;6.10;;;;;;;7.65;81.62;102613.78;3571135;40;20060;-65
2021/12/20 00:25:39;;;;;;;15.18;6.30;;;;;;;7.66;81.04;102609.28;3570335;40;20048;-66
2021/12/20 00:28:05;;;;;;;11.40;5.90;;;;;;;7.64;81.23;102606.66;3571241;40;20064;-64
2021/12/20 00:30:32;;;;;;;12.65;6.30;;;;;;;7.64;81.03;102608.44;3571857;40;20093;-64
2021/12/20 00:32:58;;;;;;;12.75;5.90;;;;;;;7.63;81.84;102604.00;3571822;40;20086;-63
2021/12/20 00:35:25;;;;;;;12.43;5.80;;;;;;;7.62;80.85;102604.94;3569443;40;20079;-64
2021/12/20 00:40:37;;;;;;;13.13;5.90;;;;;;;7.44;81.28;102572.28;3571134;40;20055;-65
2021/12/20 00:43:04;;;;;;;12.80;5.03;;;;;;;7.29;81.18;102537.81;3571056;40;20056;-64
2021/12/20 00:45:36;;;;;;;10.38;5.07;;;;;;;7.60;81.21;102590.69;3571390;40;20065;-65
2021/12/20 00:48:04;;;;;;;14.23;5.15;;;;;;;7.60;81.17;102588.00;3571949;40;20406;-64
2021/12/20 00:50:31;;;;;;;14.75;5.05;;;;;;;7.62;81.12;102591.53;3572602;40;20472;-65
2021/12/20 00:52:58;;;;;;;11.15;4.32;;;;;;;7.60;80.40;102586.22;3570494;40;20049;-65
2021/12/20 00:55:27;;;;;;;15.95;5.70;;;;;;;7.58;80.89;102590.72;3568905;40;20115;-65
2021/12/20 00:57:57;;;;;;;13.38;4.45;;;;;;;7.50;80.57;102589.13;3571889;40;20058;-66
2021/12/20 01:00:31;;;;;;;15.32;5.00;;;;;;;7.50;80.36;102581.97;3567376;40;20069;-65
2021/12/20 01:02:58;;;;;;;10.57;4.18;;;;;;;7.52;80.69;102590.84;3571955;40;20284;-65
2021/12/20 01:05:26;;;;;;;15.13;4.80;;;;;;;7.55;81.82;102590.78;3570174;40;20075;-66
2021/12/20 01:07:56;;;;;;;13.88;4.57;;;;;;;7.55;80.98;102582.78;3569916;40;20098;-65
2021/12/20 01:10:21;;;;;;;14.13;4.55;;;;;;;7.42;80.75;102567.84;3565502;40;20061;-65
2021/12/20 01:12:50;;;;;;;13.43;4.18;;;;;;;7.54;80.26;102597.03;3568710;40;20064;-66
2021/12/20 01:15:33;;;;;;;10.20;3.75;;;;;;;7.53;80.01;102591.75;3567497;40;20060;-64
2021/12/20 01:18:00;;;;;;;11.95;3.40;;;;;;;7.52;79.56;102600.69;3567166;40;20076;-65
2021/12/20 01:20:27;;;;;;;13.20;3.40;;;;;;;7.49;79.41;102601.63;3568445;40;20060;-65
2021/12/20 01:22:54;;;;;;;12.82;3.42;;;;;;;7.49;78.79;102595.41;3566143;40;20049;-64
2021/12/20 01:25:21;;;;;;;10.50;3.20;;;;;;;7.28;78.98;102559.25;3565825;40;20052;-63
2021/12/20 01:27:48;;;;;;;16.10;3.33;;;;;;;7.40;76.68;102588.44;3570720;40;20101;-65
2021/12/20 01:30:18;;;;;;;13.65;2.92;;;;;;;7.52;74.52;102600.69;3564687;40;20064;-65
2021/12/20 01:32:44;;;;;;;15.32;3.40;;;;;;;7.47;74.24;102587.38;3566795;40;20095;-64
2021/12/20 01:35:10;;;;;;;12.98;2.70;;;;;;;7.48;72.72;102591.81;3567577;40;20452;-64
2021/12/20 01:37:36;;;;;;;18.73;2.95;;;;;;;7.47;72.82;102587.38;3570712;40;20060;-66
2021/12/20 01:40:06;;;;;;;13.98;2.65;;;;;;;7.53;72.65;102591.75;3566974;40;20158;-65
2021/12/20 01:42:34;;;;;;;16.58;2.63;;;;;;;7.52;72.60;102589.97;3565906;40;20107;-64
2021/12/20 01:45:01;;;;;;;15.93;3.20;;;;;;;7.32;73.55;102561.81;3565104;40;20591;-64
2021/12/20 01:47:35;;;;;;;16.40;2.85;;;;;;;7.50;74.15;102590.00;3567582;40;20240;-65
2021/12/20 01:50:12;;;;;;;17.92;4.03;;;;;;;7.26;74.19;102542.34;3569935;40;20064;-65
2021/12/20 01:52:43;;;;;;;17.95;3.25;;;;;;;7.51;74.05;102588.19;3569129;40;20049;-65
2021/12/20 01:55:17;;;;;;;18.00;3.42;;;;;;;7.52;74.38;102585.50;3566970;40;20045;-65
2021/12/20 01:57:44;;;;;;;18.58;3.30;;;;;;;7.33;73.68;102546.66;3571911;40;20056;-65
2021/12/20 02:00:21;;;;;;;18.50;3.60;;;;;;;7.52;74.04;102596.22;3568543;40;20057;-64
2021/12/20 02:02:50;;;;;;;17.10;3.10;;;;;;;7.49;75.09;102590.91;3611283;23;20063;-62
2021/12/20 02:05:21;;;;;;;14.27;3.50;;;;;;;7.53;74.40;102576.56;3581552;40;20088;-62
2021/12/20 02:08:13;;;;;;;14.77;3.25;;;;;;;7.09;74.10;102506.13;3581305;40;20048;-63
2021/12/20 02:10:39;;;;;;;12.80;3.25;;;;;;;7.51;74.94;102581.03;3582239;40;20126;-62
2021/12/20 02:13:05;;;;;;;17.95;3.25;;;;;;;7.47;72.63;102576.69;3573892;40;20049;-62
2021/12/20 02:15:31;;;;;;;13.50;3.22;;;;;;;7.16;72.27;102534.50;3571211;40;20064;-63
2021/12/20 02:17:56;;;;;;;17.60;3.22;;;;;;;7.46;72.24;102580.28;3572170;40;20130;-63
2021/12/20 02:20:30;;;;;;;13.05;2.90;;;;;;;7.45;71.40;102575.81;3572676;40;20072;-65
2021/12/20 02:22:58;;;;;;;19.85;3.45;;;;;;;7.44;71.97;102574.06;3572769;40;20398;-63
2021/12/20 02:25:27;;;;;;;16.48;3.17;;;;;;;7.45;72.45;102578.50;3563137;40;20060;-63
2021/12/20 02:27:53;;;;;;;14.55;3.28;;;;;;;7.41;72.53;102572.31;3570659;40;20404;-63
2021/12/20 02:38:32;;;;;;;18.73;3.13;;;;;;;7.38;72.91;102574.19;3574754;40;20052;-64
2021/12/20 02:41:07;;;;;;;17.83;3.53;;;;;;;7.38;72.54;102564.38;3576331;40;20052;-64
2021/12/20 02:43:38;;;;;;;18.27;3.35;;;;;;;7.39;72.14;102562.56;3572493;40;20080;-64
2021/12/20 02:46:09;;;;;;;16.20;3.15;;;;;;;7.39;72.08;102574.19;3555740;40;20165;-64
2021/12/20 02:48:35;;;;;;;17.00;3.22;;;;;;;7.36;73.14;102568.88;3573530;40;20048;-63
2021/12/20 02:51:00;;;;;;;16.75;3.05;;;;;;;7.40;73.24;102567.03;3573136;40;20410;-64
2021/12/20 02:53:26;;;;;;;20.70;3.42;;;;;;;7.40;73.24;102569.69;3571220;40;20149;-64
2021/12/20 02:55:52;;;;;;;19.15;3.78;;;;;;;7.38;72.72;102576.88;3572723;40;20058;-64
2021/12/20 02:58:17;;;;;;;16.20;3.22;;;;;;;7.33;73.02;102566.28;3573375;40;20305;-64
2021/12/20 03:00:43;;;;;;;17.55;3.50;;;;;;;7.33;72.16;102568.06;3571624;40;20052;-64
2021/12/20 03:03:09;;;;;;;14.15;2.70;;;;;;;7.33;72.48;102565.41;3569560;40;20057;-64
2021/12/20 03:05:36;;;;;;;17.10;3.03;;;;;;;7.32;72.14;102566.28;3574371;40;20052;-64
2021/12/20 03:08:04;;;;;;;18.10;2.83;;;;;;;7.31;71.40;102569.88;3575212;40;20055;-64
2021/12/20 03:10:31;;;;;;;18.33;2.95;;;;;;;7.29;70.79;102563.69;3574121;40;20060;-64
2021/12/20 03:12:57;;;;;;;16.73;3.00;;;;;;;7.32;70.54;102563.63;3573384;40;20080;-64
2021/12/20 03:15:26;;;;;;;14.70;3.00;;;;;;;7.32;70.37;102567.16;3573453;40;20056;-64
2021/12/20 03:17:54;;;;;;;17.33;3.78;;;;;;;7.35;71.41;102574.25;3571290;40;20055;-64
2021/12/20 03:20:22;;;;;;;25.70;4.10;;;;;;;7.33;71.72;102568.06;3573453;40;20570;-64
2021/12/20 03:22:48;;;;;;;16.35;3.03;;;;;;;7.33;71.47;102562.72;3573729;40;20287;-64
2021/12/20 03:25:15;;;;;;;23.77;3.30;;;;;;;7.31;72.11;102560.06;3572797;40;20414;-64
2021/12/20 03:27:41;;;;;;;17.83;3.10;;;;;;;7.34;70.95;102565.34;3573270;40;20052;-64
2021/12/20 03:30:10;;;;;;;18.90;2.97;;;;;;;7.35;71.53;102558.19;3573298;40;20053;-63
2021/12/20 03:32:36;;;;;;;14.50;2.65;;;;;;;7.34;71.12;102556.44;3573287;40;20060;-64
2021/12/20 03:35:05;;;;;;;20.35;2.90;;;;;;;7.37;71.50;102567.97;3573170;40;20144;-64
2021/12/20 03:37:31;;;;;;;16.73;3.17;;;;;;;7.35;71.95;102567.09;3573533;40;20064;-63
2021/12/20 03:39:57;;;;;;;19.23;3.60;;;;;;;7.35;72.21;102568.91;3573493;40;20457;-64
2021/12/20 03:42:23;;;;;;;19.35;3.30;;;;;;;7.33;70.84;102562.72;3572243;40;20110;-65
2021/12/20 03:44:49;;;;;;;15.60;3.10;;;;;;;7.31;71.20;102567.22;3572502;40;20122;-64
2021/12/20 03:47:15;;;;;;;19.05;3.05;;;;;;;7.33;72.31;102578.78;3574953;40;20056;-63
2021/12/20 03:49:42;;;;;;;18.52;3.00;;;;;;;7.07;71.71;102529.38;3574666;40;20583;-64
2021/12/20 03:52:10;;;;;;;19.80;3.80;;;;;;;7.19;71.32;102553.16;3573558;40;20062;-64
2021/12/20 03:54:37;;;;;;;22.10;2.95;;;;;;;7.30;71.15;102568.13;3576089;40;20056;-64
2021/12/20 03:57:04;;;;;;;19.88;3.63;;;;;;;7.27;71.99;102563.72;3575990;40;20053;-64
2021/12/20 03:59:31;;;;;;;19.25;3.70;;;;;;;7.27;71.06;102562.84;3573960;40;20061;-64
2021/12/20 04:01:58;;;;;;;19.90;3.38;;;;;;;7.27;71.37;102565.53;3573919;40;20578;-64
2021/12/20 04:04:24;;;;;;;13.10;2.80;;;;;;;7.27;72.06;102573.53;3575201;40;20045;-64
2021/12/20 04:06:50;;;;;;;19.90;2.95;;;;;;;7.12;71.52;102543.50;3574546;40;20264;-64
2021/12/20 04:09:16;;;;;;;22.83;3.70;;;;;;;7.26;71.45;102572.63;3572684;40;20048;-63
2021/12/20 04:11:42;;;;;;;20.15;3.15;;;;;;;7.22;71.35;102565.59;3570824;40;20068;-64
2021/12/20 04:14:07;;;;;;;17.20;3.30;;;;;;;7.25;71.50;102559.31;3573827;40;20409;-63
2021/12/20 04:16:36;;;;;;;17.52;3.40;;;;;;;7.22;71.98;102558.44;3567706;40;20551;-64
2021/12/20 04:19:03;;;;;;;19.83;3.53;;;;;;;7.13;71.46;102545.25;3572171;40;20049;-64
2021/12/20 04:21:30;;;;;;;17.10;3.88;;;;;;;7.17;72.15;102557.69;3566844;40;20449;-64
2021/12/20 04:23:56;;;;;;;16.90;3.63;;;;;;;7.17;71.22;102563.03;3569092;40;20051;-64
2021/12/20 04:26:22;;;;;;;18.17;3.20;;;;;;;7.16;70.33;102569.25;3570484;40;20056;-64
2021/12/20 04:28:49;;;;;;;20.70;3.53;;;;;;;7.16;70.53;102561.25;3573793;40;20567;-64
2021/12/20 04:31:15;;;;;;;17.58;3.83;;;;;;;7.19;70.43;102563.84;3563906;40;20395;-64
2021/12/20 04:33:41;;;;;;;20.98;3.75;;;;;;;7.23;70.13;102564.72;3573146;40;20063;-64
2021/12/20 04:36:07;;;;;;;21.80;4.32;;;;;;;7.13;70.21;102553.28;3571966;40;20170;-63
2021/12/20 04:38:33;;;;;;;27.05;3.95;;;;;;;7.25;69.99;102564.66;3572657;40;20418;-63
2021/12/20 04:40:59;;;;;;;24.60;4.47;;;;;;;7.26;70.31;102561.06;3573168;40;20059;-63
2021/12/20 04:43:25;;;;;;;21.20;4.03;;;;;;;7.24;70.20;102558.44;3573471;40;20065;-64
2021/12/20 04:45:50;;;;;;;22.48;3.65;;;;;;;7.22;70.41;102558.44;3572333;40;20512;-63
2021/12/20 04:48:16;;;;;;;18.30;3.65;;;;;;;7.25;69.05;102564.66;3571729;40;20052;-63
2021/12/20 04:50:41;;;;;;;23.90;3.92;;;;;;;7.22;69.53;102563.78;3571842;40;20414;-64
2021/12/20 04:53:07;;;;;;;24.15;4.05;;;;;;;7.25;68.80;102564.66;3572774;40;20072;-63
2021/12/20 04:55:34;;;;;;;22.15;3.65;;;;;;;7.21;69.47;102563.84;3571759;40;20383;-63
2021/12/20 04:58:02;;;;;;;26.75;4.18;;;;;;;7.26;69.41;102563.72;3573715;40;20052;-64
2021/12/20 05:00:33;;;;;;;22.60;3.60;;;;;;;7.24;68.30;102566.47;3572657;40;20068;-64
2021/12/20 05:03:00;;;;;;;23.05;3.47;;;;;;;7.23;68.70;102567.38;3567740;40;20068;-63
2021/12/20 05:05:28;;;;;;;26.42;3.72;;;;;;;7.23;68.93;102562.03;3566990;40;20053;-62
2021/12/20 05:07:55;;;;;;;22.38;3.55;;;;;;;7.22;68.51;102569.16;3572845;40;20452;-63
2021/12/20 05:10:27;;;;;;;25.38;3.53;;;;;;;7.21;67.60;102564.72;3573825;40;20063;-63
2021/12/20 05:12:56;;;;;;;21.77;3.40;;;;;;;7.20;65.73;102557.63;3573188;40;20326;-63
2021/12/20 05:15:23;;;;;;;15.35;3.10;;;;;;;7.22;67.20;102568.28;3572463;40;20048;-63
2021/12/20 05:17:50;;;;;;;18.67;3.70;;;;;;;7.21;67.47;102562.03;3569823;40;20472;-63
2021/12/20 05:20:16;;;;;;;16.40;3.30;;;;;;;7.20;67.77;102573.66;3572124;40;20052;-62
2021/12/20 05:22:42;;;;;;;21.33;3.70;;;;;;;7.21;68.18;102570.06;3572408;40;20306;-62
2021/12/20 05:25:08;;;;;;;20.08;3.53;;;;;;;7.20;66.76;102565.63;3573705;40;20089;-62
2021/12/20 05:27:34;;;;;;;17.65;3.53;;;;;;;7.20;66.77;102568.31;3571606;40;20060;-62
2021/12/20 05:30:00;;;;;;;21.33;4.00;;;;;;;7.19;66.58;102571.00;3569709;40;20418;-62
2021/12/20 05:32:27;;;;;;;18.40;4.07;;;;;;;7.01;67.16;102526.81;3572466;40;20056;-62
2021/12/20 05:34:52;;;;;;;21.85;3.38;;;;;;;7.19;67.16;102558.50;3571454;40;20063;-62
2021/12/20 05:37:18;;;;;;;26.95;4.82;;;;;;;7.19;66.22;102571.88;3572905;40;20056;-62
2021/12/20 05:39:44;;;;;;;18.58;3.97;;;;;;;7.19;67.52;102571.88;3572428;40;20501;-62
2021/12/20 05:42:10;;;;;;;20.63;4.07;;;;;;;7.17;67.43;102573.72;3572508;40;20055;-62
2021/12/20 05:44:35;;;;;;;18.70;3.72;;;;;;;7.19;66.87;102576.34;3563123;40;20056;-61
2021/12/20 05:47:03;;;;;;;19.50;4.15;;;;;;;7.18;67.66;102564.78;3572631;40;20052;-62
2021/12/20 05:49:30;;;;;;;15.85;3.58;;;;;;;7.15;66.80;102571.97;3571633;40;20063;-62
2021/12/20 05:51:55;;;;;;;16.70;3.78;;;;;;;7.13;67.08;102560.44;3570571;40;20375;-62
2021/12/20 05:54:21;;;;;;;13.75;3.00;;;;;;;7.15;66.61;102563.97;3574220;40;20056;-62
2021/12/20 05:56:46;;;;;;;20.27;4.05;;;;;;;7.17;66.73;102563.03;3574730;40;20048;-61
2021/12/20 05:59:12;;;;;;;22.20;3.33;;;;;;;7.18;65.92;102575.47;3557816;40;20060;-62
2021/12/20 06:01:38;;;;;;;23.05;4.00;;;;;;;7.17;67.10;102573.72;3570645;40;20315;-62
2021/12/20 06:04:03;;;;;;;25.23;3.33;;;;;;;7.16;65.35;102571.94;3571075;40;20059;-62
2021/12/20 06:06:31;;;;;;;22.65;3.50;;;;;;;7.18;66.16;102564.78;3571910;40;20060;-62
2021/12/20 06:08:58;;;;;;;19.90;3.65;;;;;;;7.19;65.78;102571.88;3572144;40;20060;-62
2021/12/20 06:11:24;;;;;;;24.45;3.67;;;;;;;7.17;66.53;102571.06;3572408;40;20063;-61
2021/12/20 06:13:52;;;;;;;27.55;3.80;;;;;;;7.18;66.84;102578.16;3572612;40;20118;-62
2021/12/20 06:16:18;;;;;;;16.60;3.33;;;;;;;7.18;66.18;102580.81;3568198;40;20059;-62
2021/12/20 06:18:43;;;;;;;13.82;2.70;;;;;;;7.18;66.06;102572.81;3570119;40;20108;-62
2021/12/20 06:21:10;;;;;;;19.95;3.53;;;;;;;7.18;66.31;102585.31;3571387;40;20072;-62
2021/12/20 06:23:36;;;;;;;20.60;4.63;;;;;;;7.16;65.12;102587.97;3562784;40;20106;-62
2021/12/20 06:26:03;;;;;;;19.63;3.88;;;;;;;7.17;66.42;102584.41;3572221;40;20089;-62
2021/12/20 06:28:29;;;;;;;22.85;4.25;;;;;;;7.17;65.89;102588.91;3574970;40;20059;-62
2021/12/20 06:30:55;;;;;;;20.38;4.10;;;;;;;7.15;65.69;102580.88;3575115;40;20055;-63
2021/12/20 06:33:21;;;;;;;18.23;3.72;;;;;;;7.10;65.79;102572.06;3570710;40;20060;-61
2021/12/20 06:35:47;;;;;;;22.67;4.22;;;;;;;7.13;66.55;102582.69;3568322;40;20296;-62
2021/12/20 06:38:19;;;;;;;26.65;3.90;;;;;;;7.12;66.89;102590.75;3572299;40;20126;-63
2021/12/20 06:40:47;;;;;;;15.05;3.47;;;;;;;7.08;65.18;102581.91;3566750;40;20052;-62
2021/12/20 06:43:12;;;;;;;21.52;3.75;;;;;;;7.07;66.70;102593.53;3574040;40;20096;-62
2021/12/20 06:45:38;;;;;;;22.05;4.07;;;;;;;7.05;65.68;102597.16;3572665;40;20052;-62
2021/12/20 06:48:05;;;;;;;19.00;3.47;;;;;;;7.05;64.93;102589.13;3572377;40;20056;-61
2021/12/20 06:50:31;;;;;;;15.18;3.30;;;;;;;7.06;64.30;102591.75;3569827;40;20090;-62
2021/12/20 06:52:57;;;;;;;17.50;2.90;;;;;;;7.10;65.32;102598.78;3568525;40;20103;-62
2021/12/20 06:55:23;;;;;;;20.67;3.75;;;;;;;7.12;65.65;102597.00;3570492;40;20469;-62
2021/12/20 06:57:49;;;;;;;22.58;3.60;;;;;;;7.11;66.11;102597.91;3572089;40;20051;-62
2021/12/20 07:00:15;;;;;;;15.35;2.88;;;;;;;7.12;65.09;102602.34;3570827;40;20422;-62
2021/12/20 07:02:41;;;;;;;17.88;3.20;;;;;;;6.97;65.01;102566.06;3570366;40;20177;-63
2021/12/20 07:05:08;;;;;;;19.90;2.95;;;;;;;6.76;64.85;102545.09;3573126;40;20586;-63
2021/12/20 07:07:34;;;;;;;14.20;3.08;;;;;;;7.11;65.20;102605.06;3571955;40;20134;-63
2021/12/20 07:10:02;;;;;;;20.13;3.75;;;;;;;7.08;66.90;102599.75;3568642;40;20048;-63
2021/12/20 07:12:29;;;;;;;22.90;4.20;;;;;;;7.05;66.82;102606.03;3571714;40;20067;-63
2021/12/20 07:14:54;;;;;;;13.63;2.83;;;;;;;7.04;65.59;102606.97;3572166;40;20107;-63
2021/12/20 07:17:21;;;;;;;17.25;3.80;;;;;;;7.04;65.23;102614.06;3570308;40;20048;-64
2021/12/20 07:19:47;;;;;;;19.77;3.85;;;;;;;7.01;66.13;102609.69;3575730;40;20064;-65
2021/12/20 07:22:13;;;;;;;15.38;3.78;;;;;;;7.01;66.25;102608.78;3572241;40;20064;-64
2021/12/20 07:24:38;;;;;;;17.58;3.50;;;;;;;7.02;65.53;102605.22;3576106;40;20052;-63
2021/12/20 07:27:07;;;;;;;21.58;3.80;;;;;;;7.01;66.31;102609.69;3575199;40;20052;-64
2021/12/20 07:29:33;;;;;;;21.50;3.40;;;;;;;7.02;66.76;102622.16;3575664;40;20049;-63
2021/12/20 07:31:58;;;;;;;21.02;3.10;;;;;;;7.00;67.31;102618.59;3575166;40;20055;-70
2021/12/20 07:34:24;;;;;;;20.65;3.95;;;;;;;7.00;66.41;102613.25;3575388;40;20108;-63
2021/12/20 07:36:51;;;;;;;26.52;3.75;;;;;;;6.99;66.98;102611.50;3573176;40;20053;-64
2021/12/20 07:39:16;;;;;;;16.77;3.47;;;;;;;7.00;66.85;102615.06;3572577;40;20540;-63
2021/12/20 07:41:42;;;;;;;21.85;4.07;;;;;;;6.99;66.56;102614.19;3572310;40;20055;-63
2021/12/20 07:44:08;;;;;;;21.65;3.80;;;;;;;7.01;67.96;102615.03;3572555;40;20488;-63
2021/12/20 07:46:34;;;;;;;22.85;4.43;;;;;;;7.00;67.59;102613.25;3574228;40;20064;-62
2021/12/20 07:49:00;;;;;;;19.48;3.58;;;;;;;6.97;68.14;102614.19;3575577;40;20061;-63
2021/12/20 07:51:26;;;;;;;18.90;3.42;;;;;;;6.73;67.67;102566.53;3573395;40;20149;-63
2021/12/20 07:53:51;;;;;;;19.00;3.72;;;;;;;7.01;67.12;102617.72;3571060;40;20049;-65
2021/12/20 07:56:18;;;;;;;20.95;3.35;;;;;;;6.84;67.82;102593.94;3572735;40;20380;-64
2021/12/20 07:58:44;;;;;;;17.38;3.67;;;;;;;7.02;68.09;102626.63;3567680;40;20101;-64
2021/12/20 08:01:10;;;;;;;18.65;3.30;;;;;;;7.01;68.42;102622.16;3571997;40;20064;-63
2021/12/20 08:03:38;;;;;;;17.70;3.35;;;;;;;6.81;68.36;102585.97;3614807;22;20055;-65
2021/12/20 08:06:05;;;;;;;19.92;4.55;;;;;;;6.93;67.69;102611.59;3574572;40;20064;-65
2021/12/20 08:08:31;;;;;;;20.10;3.97;;;;;;;6.97;67.79;102619.53;3583541;40;20070;-65
2021/12/20 08:10:57;;;;;;;15.57;3.00;;;;;;;6.85;67.67;102592.13;3582786;40;20296;-68
2021/12/20 08:13:23;;;;;;;25.55;4.85;;;;;;;7.00;68.32;102625.75;3583690;40;20056;-65
2021/12/20 08:15:48;;;;;;;20.45;3.80;;;;;;;7.01;68.07;102625.72;3580205;40;20049;-61
2021/12/20 08:18:14;;;;;;;18.83;3.90;;;;;;;7.03;68.28;102623.91;3579276;40;20092;-61
2021/12/20 08:20:40;;;;;;;24.95;4.72;;;;;;;7.01;67.33;102616.81;3579622;40;20052;-62
2021/12/20 08:23:06;;;;;;;26.83;4.70;;;;;;;6.99;67.71;102622.19;3582872;40;20505;-61
2021/12/20 08:25:32;;;;;;;20.05;3.95;;;;;;;6.99;67.17;102616.84;3581646;40;20052;-61
2021/12/20 08:27:58;;;;;;;19.80;4.95;;;;;;;7.06;67.62;102634.53;3584886;40;20096;-61
2021/12/20 08:30:24;;;;;;;19.05;3.90;;;;;;;7.02;67.71;102627.50;3579530;40;20073;-61
2021/12/20 08:32:51;;;;;;;21.35;3.95;;;;;;;6.98;67.64;102612.41;3581507;40;20089;-62
2021/12/20 08:35:17;;;;;;;20.02;3.92;;;;;;;7.02;68.15;102621.25;3580784;40;20063;-63
2021/12/20 08:37:43;;;;;;;20.00;3.90;;;;;;;7.05;67.87;102638.13;3583261;40;20053;-62
2021/12/20 08:40:15;;;;;;;23.13;3.78;;;;;;;7.01;67.14;102620.38;3581513;40;20068;-62
2021/12/20 08:42:44;;;;;;;21.92;4.15;;;;;;;7.07;67.55;102628.31;3577916;40;20082;-62
2021/12/20 08:45:14;;;;;;;20.10;4.45;;;;;;;7.13;67.92;102636.19;3583477;40;20060;-61
2021/12/20 08:47:40;;;;;;;20.65;3.35;;;;;;;7.10;67.30;102630.00;3581325;40;20052;-63
2021/12/20 08:50:14;;;;;;;18.02;3.60;;;;;;;7.15;66.19;102636.16;3579681;40;20088;-61
2021/12/20 08:52:40;;;;;;;17.20;3.25;;;;;;;7.17;65.47;102640.59;3581462;40;20059;-62
2021/12/20 08:55:07;;;;;;;19.70;4.40;;;;;;;7.20;65.63;102637.84;3579710;40;20056;-61
2021/12/20 08:57:33;;;;;;;16.00;3.42;;;;;;;7.16;66.00;102630.78;3584559;40;20053;-62
2021/12/20 09:00:00;;;;;;;17.20;3.28;;;;;;;7.16;64.94;102620.06;3579378;40;20114;-61
2021/12/20 09:02:25;;;;;;;21.10;4.30;;;;;;;7.27;64.68;102633.28;3579998;40;20060;-62
2021/12/20 09:04:51;;;;;;;21.38;3.92;;;;;;;7.31;65.93;102634.09;3582304;40;20059;-62
2021/12/20 09:07:17;;;;;;;12.80;3.35;;;;;;;7.33;64.35;102637.63;3582106;40;20056;-61
2021/12/20 09:09:47;;;;;;;14.80;3.70;;;;;;;7.33;64.88;102630.47;3583102;40;20056;-61
2021/12/20 09:12:16;;;;;;;18.45;3.83;;;;;;;7.31;64.97;102623.38;3580237;40;20064;-62
2021/12/20 09:14:42;;;;;;;13.07;3.40;;;;;;;7.31;64.93;102626.06;3568293;40;20067;-61
2021/12/20 09:17:08;;;;;;;18.52;3.40;;;;;;;7.40;65.50;102640.13;3580639;40;20064;-61
2021/12/20 09:19:37;;;;;;;17.63;3.08;;;;;;;7.46;65.85;102638.28;3575546;40;20057;-62
2021/12/20 09:22:06;;;;;;;20.25;2.92;;;;;;;7.44;65.43;102651.66;3575396;40;20048;-61
2021/12/20 09:24:34;;;;;;;17.10;3.40;;;;;;;7.40;63.44;102634.78;3578983;40;20112;-62
2021/12/20 09:27:02;;;;;;;19.27;3.45;;;;;;;7.47;63.51;102643.56;3582900;40;20053;-61
2021/12/20 09:29:28;;;;;;;18.00;3.22;;;;;;;7.41;63.56;102635.66;3581376;40;20062;-62
2021/12/20 09:31:54;;;;;;;16.70;3.40;;;;;;;7.47;63.50;102640.91;3579217;40;20056;-61
2021/12/20 09:34:20;;;;;;;18.60;3.55;;;;;;;7.54;64.17;102652.34;3579540;40;20496;-62
2021/12/20 09:36:46;;;;;;;16.35;3.30;;;;;;;7.54;62.88;102650.56;3581119;40;20064;-61
2021/12/20 09:39:11;;;;;;;13.68;2.88;;;;;;;7.56;63.73;102647.88;3582091;40;20129;-65
2021/12/20 09:44:09;;;;;;;16.88;3.88;;;;;;;7.64;61.13;102660.19;3581699;40;20097;-62
2021/12/20 09:46:36;;;;;;;15.25;3.30;;;;;;;7.60;62.12;102657.59;3582834;40;20113;-63
2021/12/20 09:49:03;;;;;;;18.85;3.95;;;;;;;7.67;62.15;102670.84;3582702;40;20487;-62
2021/12/20 09:51:29;;;;;;;14.40;3.38;;;;;;;7.68;62.52;102667.25;3582045;40;20060;-62
2021/12/20 09:53:55;;;;;;;15.63;3.60;;;;;;;7.64;62.43;102660.19;3580797;40;20125;-62
2021/12/20 09:56:25;;;;;;;16.67;3.05;;;;;;;7.70;62.97;102671.66;3579755;40;20056;-62
2021/12/20 09:58:54;;;;;;;15.85;3.10;;;;;;;7.74;62.58;102676.03;3582636;40;20487;-62
2021/12/20 10:01:23;;;;;;;14.80;3.15;;;;;;;7.75;62.75;102667.13;3580888;40;20058;-62
2021/12/20 10:03:49;;;;;;;13.65;3.33;;;;;;;7.75;62.96;102672.47;3579376;40;20052;-64
2021/12/20 10:06:15;;;;;;;16.13;3.70;;;;;;;7.76;62.96;102664.41;3581365;40;20055;-62
2021/12/20 10:08:53;;;;;;;17.45;3.53;;;;;;;7.78;63.28;102664.38;3578804;40;20440;-62
2021/12/20 10:11:27;;;;;;;14.40;3.45;;;;;;;7.78;62.44;102669.72;3580819;40;20122;-62
2021/12/20 10:14:07;;;;;;;18.63;3.67;;;;;;;7.78;63.25;102654.53;3574513;40;20059;-62
2021/12/20 10:16:34;;;;;;;16.63;3.20;;;;;;;7.84;64.02;102669.59;3581563;40;20051;-62
2021/12/20 10:19:00;;;;;;;19.67;4.15;;;;;;;7.88;64.62;102674.84;3582624;40;20317;-62
2021/12/20 10:21:40;;;;;;;16.20;4.20;;;;;;;7.89;64.65;102668.56;3579206;40;20103;-62
2021/12/20 10:24:07;;;;;;;14.35;3.50;;;;;;;7.93;62.51;102679.22;3580562;40;20067;-62
2021/12/20 10:26:42;;;;;;;13.93;3.72;;;;;;;7.91;63.48;102679.28;3581792;40;20379;-63
2021/12/20 10:29:21;;;;;;;13.35;3.38;;;;;;;7.91;63.07;102665.88;3578364;40;20327;-62
2021/12/20 10:31:49;;;;;;;17.67;3.63;;;;;;;7.93;62.87;102672.09;3580255;40;20088;-63
2021/12/20 10:34:18;;;;;;;17.88;3.00;;;;;;;7.87;62.35;102657.03;3581746;40;20076;-62
2021/12/20 10:36:59;;;;;;;15.32;3.67;;;;;;;7.90;61.81;102661.44;3582434;40;20052;-63
2021/12/20 10:39:43;;;;;;;20.75;4.03;;;;;;;7.97;63.27;102672.91;3577960;40;20068;-62
2021/12/20 10:42:17;;;;;;;18.10;3.78;;;;;;;7.98;63.74;102664.81;3580409;40;20391;-61
2021/12/20 10:44:43;;;;;;;19.25;4.00;;;;;;;7.78;62.81;102637.59;3576659;40;20389;-62
2021/12/20 10:47:26;;;;;;;15.75;3.85;;;;;;;7.96;62.00;102672.03;3577733;40;20387;-61
2021/12/20 10:49:52;;;;;;;18.48;4.30;;;;;;;7.91;62.78;102669.44;3577049;40;20052;-61
2021/12/20 10:52:31;;;;;;;23.25;4.13;;;;;;;7.95;62.44;102674.72;3580067;40;20077;-64
2021/12/20 10:54:57;;;;;;;17.02;4.10;;;;;;;7.91;62.95;102661.41;3579849;40;20056;-62
2021/12/20 10:57:28;;;;;;;19.67;4.03;;;;;;;7.95;63.61;102667.56;3579918;40;20078;-62
2021/12/20 11:00:19;;;;;;;17.67;4.50;;;;;;;7.96;62.68;102663.09;3580036;40;20146;-62
2021/12/20 11:03:18;;;;;;;17.08;4.38;;;;;;;8.01;63.74;102670.13;3581651;40;20096;-61
2021/12/20 11:06:12;;;;;;;17.58;4.18;;;;;;;8.05;64.09;102669.13;3578231;40;20064;-62
2021/12/20 11:11:20;;;;;;;20.60;4.10;;;;;;;8.07;63.79;102661.94;3578651;40;20071;-62
2021/12/20 11:13:46;;;;;;;19.17;3.85;;;;;;;7.94;64.58;102633.69;3580099;40;20110;-62
2021/12/20 11:16:30;;;;;;;19.48;3.90;;;;;;;8.10;63.36;102669.91;3580468;40;20499;-62
2021/12/20 11:19:15;;;;;;;16.67;3.63;;;;;;;8.13;64.37;102663.63;3579039;40;20045;-62
2021/12/20 11:21:58;;;;;;;18.73;3.70;;;;;;;8.12;63.60;102660.06;3580728;40;20055;-62
2021/12/20 11:24:29;;;;;;;16.90;3.95;;;;;;;7.91;63.68;102615.00;3582334;40;20061;-62
2021/12/20 11:26:57;;;;;;;17.15;3.90;;;;;;;8.08;63.43;102644.97;3581281;40;20058;-62
2021/12/20 11:29:24;;;;;;;21.20;3.80;;;;;;;8.13;64.53;102653.78;3579420;40;20060;-62
2021/12/20 11:31:53;;;;;;;20.67;3.85;;;;;;;8.14;64.65;102660.91;3582665;40;20067;-62
2021/12/20 11:34:19;;;;;;;16.67;4.00;;;;;;;8.09;62.61;102651.22;3580786;40;20048;-62
2021/12/20 11:36:46;;;;;;;18.08;3.58;;;;;;;8.09;62.98;102651.22;3582330;40;20048;-62
2021/12/20 11:39:12;;;;;;;18.58;4.20;;;;;;;8.08;63.46;102650.31;3582430;40;20265;-62
2021/12/20 11:41:38;;;;;;;19.55;3.58;;;;;;;8.16;64.87;102660.00;3582770;40;20055;-62
2021/12/20 11:44:13;;;;;;;17.90;3.65;;;;;;;8.14;63.36;102658.22;3581417;40;20053;-65